createdAt,value
2022-10-01T00:02:08.146Z,16.02
2022-10-01T00:04:37.657Z,16.04
2022-10-01T00:07:09.548Z,16.38
2022-10-01T00:09:37.585Z,16.20
2022-10-01T00:12:05.354Z,16.38
2022-10-01T00:14:33.024Z,16.32
2022-10-01T00:17:01.024Z,16.44
2022-10-01T00:19:28.727Z,16.77
2022-10-01T00:21:56.282Z,16.86
2022-10-01T00:24:24.259Z,16.61
2022-10-01T00:26:51.812Z,16.45
2022-10-01T00:29:19.516Z,16.76
2022-10-01T00:31:47.764Z,16.69
2022-10-01T00:34:15.873Z,16.78
2022-10-01T00:36:43.625Z,16.41
2022-10-01T00:39:12.256Z,16.34
2022-10-01T00:41:40.513Z,16.57
2022-10-01T00:44:29.472Z,16.24
2022-10-01T00:47:19.665Z,16.48
2022-10-01T00:49:49.357Z,16.51
2022-10-01T00:52:22.678Z,16.79
2022-10-01T00:54:55.741Z,16.68
2022-10-01T00:57:26.551Z,16.77
2022-10-01T00:59:57.856Z,16.82
2022-10-01T01:02:26.002Z,16.73
2022-10-01T01:04:53.640Z,16.63
2022-10-01T01:07:22.222Z,15.92
2022-10-01T01:09:53.500Z,16.15
2022-10-01T01:12:21.026Z,16.24
2022-10-01T01:15:04.855Z,16.13
2022-10-01T01:17:50.852Z,16.13
2022-10-01T01:20:37.856Z,16.20
2022-10-01T01:23:14.857Z,16.27
2022-10-01T01:26:10.431Z,16.28
2022-10-01T01:28:44.480Z,16.35
2022-10-01T01:31:16.253Z,16.33
2022-10-01T01:33:47.453Z,16.53
2022-10-01T01:36:19.202Z,16.72
2022-10-01T01:38:54.834Z,16.56
2022-10-01T01:41:26.015Z,16.73
2022-10-01T01:43:56.751Z,16.70
2022-10-01T01:46:31.686Z,16.34
2022-10-01T01:49:02.266Z,16.47
2022-10-01T01:51:47.807Z,16.67
2022-10-01T01:54:15.862Z,16.69
2022-10-01T01:56:43.563Z,17.10
2022-10-01T01:59:11.819Z,17.05
2022-10-01T02:01:44.255Z,16.84
2022-10-01T02:04:31.603Z,16.85
2022-10-01T02:07:36.379Z,16.89
2022-10-01T02:10:16.898Z,16.65
2022-10-01T02:13:14.302Z,16.80
2022-10-01T02:15:48.415Z,17.08
2022-10-01T02:18:50.677Z,16.44
2022-10-01T02:21:30.407Z,16.88
2022-10-01T02:24:09.268Z,17.04
2022-10-01T02:26:40.555Z,17.04
2022-10-01T02:29:11.404Z,16.86
2022-10-01T02:31:41.321Z,16.54
2022-10-01T02:34:12.627Z,16.72
2022-10-01T02:36:42.522Z,16.76
2022-10-01T02:39:12.256Z,16.67
2022-10-01T02:41:44.208Z,16.90
2022-10-01T02:44:23.433Z,16.90
2022-10-01T02:47:15.108Z,16.85
2022-10-01T02:49:43.061Z,16.46
2022-10-01T02:52:26.285Z,16.29
2022-10-01T02:55:07.730Z,16.50
2022-10-01T02:57:37.180Z,16.70
2022-10-01T03:00:09.323Z,16.65
2022-10-01T03:02:37.533Z,16.25
2022-10-01T03:05:06.256Z,16.45
2022-10-01T03:07:35.821Z,16.58
2022-10-01T03:10:05.159Z,16.63
2022-10-01T03:12:33.202Z,16.49
2022-10-01T03:15:02.396Z,16.42
2022-10-01T03:17:30.613Z,16.00
2022-10-01T03:19:58.205Z,16.01
2022-10-01T03:22:25.782Z,15.95
2022-10-01T03:24:54.156Z,15.86
2022-10-01T03:27:22.547Z,16.02
2022-10-01T03:29:50.609Z,16.25
2022-10-01T03:32:18.717Z,16.32
2022-10-01T03:34:46.685Z,16.24
2022-10-01T03:37:14.364Z,15.88
2022-10-01T03:39:42.777Z,16.08
2022-10-01T03:42:10.355Z,16.00
2022-10-01T03:44:37.909Z,15.55
2022-10-01T03:47:05.781Z,15.28
2022-10-01T03:49:34.657Z,15.60
2022-10-01T03:52:04.130Z,15.89
2022-10-01T03:54:32.020Z,15.69
2022-10-01T03:56:59.647Z,15.61
2022-10-01T03:59:27.529Z,15.77
2022-10-01T04:01:55.689Z,15.75
2022-10-01T04:04:23.652Z,16.06
2022-10-01T04:06:51.202Z,16.10
2022-10-01T04:09:18.719Z,16.05
2022-10-01T04:11:46.608Z,15.79
2022-10-01T04:14:14.316Z,15.28
2022-10-01T04:16:41.891Z,15.93
2022-10-01T04:19:10.068Z,16.24
2022-10-01T04:21:39.078Z,16.20
2022-10-01T04:24:06.737Z,16.22
2022-10-01T04:26:34.725Z,15.67
2022-10-01T04:29:02.382Z,15.46
2022-10-01T04:31:35.080Z,15.89
2022-10-01T04:34:03.968Z,15.57
2022-10-01T04:36:31.569Z,15.99
2022-10-01T04:39:02.478Z,15.69
2022-10-01T04:41:31.487Z,15.92
2022-10-01T04:44:00.055Z,15.96
2022-10-01T04:46:30.568Z,15.97
2022-10-01T04:48:58.665Z,15.68
2022-10-01T04:51:26.265Z,15.51
2022-10-01T04:53:53.859Z,16.15
2022-10-01T04:56:21.871Z,16.17
2022-10-01T04:58:49.393Z,16.24
2022-10-01T05:01:16.938Z,15.94
2022-10-01T05:03:44.899Z,16.08
2022-10-01T05:06:12.401Z,16.07
2022-10-01T05:08:39.985Z,15.76
2022-10-01T05:11:07.883Z,16.44
2022-10-01T05:13:35.493Z,16.32
2022-10-01T05:16:03.880Z,16.33
2022-10-01T05:18:32.461Z,16.50
2022-10-01T05:21:04.873Z,16.52
2022-10-01T05:23:33.622Z,16.38
2022-10-01T05:26:01.283Z,16.32
2022-10-01T05:28:29.187Z,16.62
2022-10-01T05:31:00.603Z,16.45
2022-10-01T05:33:28.586Z,16.56
2022-10-01T05:35:57.125Z,16.53
2022-10-01T05:38:25.133Z,16.83
2022-10-01T05:40:52.637Z,16.88
2022-10-01T05:43:20.294Z,16.94
2022-10-01T05:45:49.786Z,16.64
2022-10-01T05:48:17.437Z,16.64
2022-10-01T05:50:45.064Z,16.90
2022-10-01T05:53:14.166Z,17.01
2022-10-01T05:55:41.872Z,17.10
2022-10-01T05:58:12.433Z,17.14
2022-10-01T06:00:41.475Z,17.51
2022-10-01T06:03:13.007Z,17.32
2022-10-01T06:05:41.068Z,17.64
2022-10-01T06:08:12.006Z,17.55
2022-10-01T06:10:39.921Z,17.69
2022-10-01T06:13:07.848Z,17.12
2022-10-01T06:15:38.904Z,17.30
2022-10-01T06:18:08.011Z,17.48
2022-10-01T06:20:36.645Z,17.52
2022-10-01T06:23:07.364Z,17.49
2022-10-01T06:25:36.450Z,17.47
2022-10-01T06:28:05.984Z,17.68
2022-10-01T06:30:36.302Z,17.91
2022-10-01T06:33:09.258Z,17.84
2022-10-01T06:35:44.685Z,17.36
2022-10-01T06:38:13.270Z,17.33
2022-10-01T06:40:41.410Z,17.83
2022-10-01T06:43:09.962Z,17.97
2022-10-01T06:45:41.159Z,18.14
2022-10-01T06:48:13.913Z,18.20
2022-10-01T06:50:44.079Z,18.12
2022-10-01T06:53:13.079Z,18.20
2022-10-01T06:55:41.324Z,18.13
2022-10-01T06:58:21.093Z,18.01
2022-10-01T07:00:49.963Z,18.16
2022-10-01T07:03:20.170Z,18.11
2022-10-01T07:05:49.216Z,17.87
2022-10-01T07:08:17.749Z,17.83
2022-10-01T07:10:45.883Z,17.83
2022-10-01T07:13:20.271Z,18.02
2022-10-01T07:15:48.368Z,17.72
2022-10-01T07:18:16.976Z,18.27
2022-10-01T07:20:44.575Z,18.14
2022-10-01T07:23:14.831Z,17.74
2022-10-01T07:25:43.278Z,17.92
2022-10-01T07:28:16.827Z,17.62
2022-10-01T07:31:00.500Z,17.65
2022-10-01T07:33:28.884Z,17.76
2022-10-01T07:36:00.310Z,17.93
2022-10-01T07:38:27.927Z,17.87
2022-10-01T07:40:55.706Z,18.21
2022-10-01T07:43:23.542Z,18.36
2022-10-01T07:45:52.801Z,17.98
2022-10-01T07:48:20.534Z,17.78
2022-10-01T07:50:48.392Z,17.77
2022-10-01T07:53:16.564Z,18.18
2022-10-01T07:55:44.893Z,18.31
2022-10-01T07:58:13.084Z,17.85
2022-10-01T08:00:40.636Z,17.66
2022-10-01T08:03:09.089Z,18.57
2022-10-01T08:05:36.890Z,18.58
2022-10-01T08:08:07.152Z,18.56
2022-10-01T08:10:37.383Z,18.07
2022-10-01T08:13:14.858Z,18.41
2022-10-01T08:15:50.675Z,18.43
2022-10-01T08:18:18.577Z,18.41
2022-10-01T08:20:47.390Z,18.00
2022-10-01T08:23:16.955Z,18.02
2022-10-01T08:25:45.262Z,18.20
2022-10-01T08:28:13.396Z,18.21
2022-10-01T08:30:42.857Z,18.07
2022-10-01T08:33:12.237Z,18.37
2022-10-01T08:35:41.504Z,18.41
2022-10-01T08:38:09.987Z,18.35
2022-10-01T08:40:50.056Z,18.45
2022-10-01T08:43:27.697Z,18.39
2022-10-01T08:46:00.579Z,18.32
2022-10-01T08:48:43.461Z,18.53
2022-10-01T08:51:23.048Z,18.83
2022-10-01T08:53:57.622Z,18.46
2022-10-01T08:56:30.911Z,19.05
2022-10-01T08:59:02.941Z,18.27
2022-10-01T09:01:31.246Z,18.63
2022-10-01T09:03:59.745Z,18.87
2022-10-01T09:06:28.415Z,18.64
2022-10-01T09:09:29.482Z,18.90
2022-10-01T09:12:00.228Z,18.94
2022-10-01T09:14:33.380Z,19.13
2022-10-01T09:17:48.689Z,19.20
2022-10-01T09:20:45.500Z,18.92
2022-10-01T09:23:22.344Z,19.14
2022-10-01T09:25:51.100Z,19.39
2022-10-01T09:28:24.415Z,18.86
2022-10-01T09:30:59.125Z,18.92
2022-10-01T09:33:33.922Z,19.41
2022-10-01T09:36:07.500Z,19.62
2022-10-01T09:38:48.614Z,19.68
2022-10-01T09:41:17.802Z,19.94
2022-10-01T09:43:45.943Z,19.70
2022-10-01T09:46:17.531Z,19.66
2022-10-01T09:48:54.371Z,19.86
2022-10-01T09:51:29.178Z,20.14
2022-10-01T09:54:05.195Z,20.00
2022-10-01T09:56:42.484Z,20.15
2022-10-01T09:59:20.799Z,20.23
2022-10-01T10:01:51.929Z,20.63
2022-10-01T10:04:23.276Z,20.45
2022-10-01T10:07:02.622Z,20.31
2022-10-01T10:09:33.432Z,20.26
2022-10-01T10:12:02.668Z,20.08
2022-10-01T10:14:41.226Z,20.22
2022-10-01T10:17:21.234Z,20.52
2022-10-01T10:19:51.803Z,20.80
2022-10-01T10:22:27.225Z,20.62
2022-10-01T10:24:58.996Z,20.02
2022-10-01T10:27:29.465Z,20.43
2022-10-01T10:30:04.567Z,20.15
2022-10-01T10:32:33.593Z,20.53
2022-10-01T10:35:10.232Z,20.17
2022-10-01T10:37:44.494Z,20.37
2022-10-01T10:40:29.236Z,20.42
2022-10-01T10:42:59.217Z,20.28
2022-10-01T10:45:38.732Z,20.43
2022-10-01T10:48:12.026Z,20.58
2022-10-01T10:50:43.595Z,19.96
2022-10-01T10:53:22.808Z,20.48
2022-10-01T10:56:01.456Z,20.67
2022-10-01T10:58:31.833Z,20.50
2022-10-01T11:01:06.909Z,20.47
2022-10-01T11:03:38.120Z,20.45
2022-10-01T11:06:14.913Z,20.80
2022-10-01T11:08:43.465Z,20.70
2022-10-01T11:11:25.237Z,20.79
2022-10-01T11:14:08.499Z,20.78
2022-10-01T11:16:36.930Z,20.65
2022-10-01T11:19:23.066Z,21.00
2022-10-01T11:22:13.647Z,20.70
2022-10-01T11:25:02.832Z,21.05
2022-10-01T11:27:47.997Z,20.79
2022-10-01T11:30:22.534Z,20.96
2022-10-01T11:33:11.598Z,20.58
2022-10-01T11:36:04.564Z,20.35
2022-10-01T11:38:54.354Z,20.80
2022-10-01T11:41:39.306Z,20.43
2022-10-01T11:44:15.988Z,20.39
2022-10-01T11:47:07.747Z,20.24
2022-10-01T11:49:35.867Z,20.35
2022-10-01T11:52:14.852Z,20.64
2022-10-01T11:55:28.165Z,20.75
2022-10-01T11:58:47.971Z,20.53
2022-10-01T12:01:27.975Z,20.42
2022-10-01T12:04:06.814Z,20.26
2022-10-01T12:06:56.493Z,19.95
2022-10-01T12:09:36.949Z,19.89
2022-10-01T12:12:08.982Z,19.74
2022-10-01T12:14:51.093Z,19.73
2022-10-01T12:17:33.583Z,19.91
2022-10-01T12:20:04.332Z,19.89
2022-10-01T12:22:38.512Z,19.76
2022-10-01T12:25:12.885Z,19.74
2022-10-01T12:27:53.389Z,19.65
2022-10-01T12:30:22.248Z,19.84
2022-10-01T12:33:04.941Z,19.62
2022-10-01T12:35:47.509Z,19.50
2022-10-01T12:38:39.466Z,19.97
2022-10-01T12:41:33.997Z,19.40
2022-10-01T12:44:34.317Z,19.34
2022-10-01T12:47:36.501Z,19.59
2022-10-01T12:50:22.849Z,19.60
2022-10-01T12:53:09.448Z,19.66
2022-10-01T12:56:03.282Z,19.65
2022-10-01T12:58:56.778Z,19.63
2022-10-01T13:01:32.564Z,18.90
2022-10-01T13:04:20.695Z,19.09
2022-10-01T13:07:04.274Z,18.89
2022-10-01T13:09:51.011Z,18.56
2022-10-01T13:13:08.018Z,18.94
2022-10-01T13:15:39.245Z,18.66
2022-10-01T13:18:09.544Z,18.62
2022-10-01T13:20:53.056Z,19.45
2022-10-01T13:23:34.117Z,19.20
2022-10-01T13:26:13.340Z,18.96
2022-10-01T13:28:58.290Z,19.13
2022-10-01T13:31:39.984Z,19.09
2022-10-01T13:34:46.129Z,19.13
2022-10-01T13:37:17.207Z,18.93
2022-10-01T13:39:49.005Z,19.34
2022-10-01T13:42:27.581Z,18.89
2022-10-01T13:44:58.561Z,19.21
2022-10-01T13:47:27.920Z,19.30
2022-10-01T13:50:00.046Z,18.50
2022-10-01T13:52:29.844Z,18.62
2022-10-01T13:54:59.719Z,19.33
2022-10-01T13:57:38.454Z,18.98
2022-10-01T14:00:11.846Z,19.27
2022-10-01T14:02:43.375Z,18.93
2022-10-01T14:05:23.182Z,18.96
2022-10-01T14:07:57.989Z,19.21
2022-10-01T14:10:34.948Z,18.76
2022-10-01T14:13:23.186Z,18.72
2022-10-01T14:16:00.201Z,18.56
2022-10-01T14:18:39.187Z,18.39
2022-10-01T14:21:17.861Z,18.42
2022-10-01T14:24:05.364Z,18.90
2022-10-01T14:26:54.201Z,18.82
2022-10-01T14:29:22.576Z,19.08
2022-10-01T14:31:55.847Z,18.68
2022-10-01T14:34:42.507Z,19.13
2022-10-01T14:37:17.106Z,19.18
2022-10-01T14:39:45.762Z,18.69
2022-10-01T14:42:18.081Z,18.49
2022-10-01T14:44:47.501Z,18.98
2022-10-01T14:47:25.657Z,18.33
2022-10-01T14:49:54.682Z,18.77
2022-10-01T14:52:31.619Z,18.98
2022-10-01T14:55:11.890Z,18.99
2022-10-01T14:57:42.749Z,19.02
2022-10-01T15:00:26.524Z,19.21
2022-10-01T15:03:15.575Z,19.08
2022-10-01T15:05:45.315Z,19.33
2022-10-01T15:08:24.537Z,18.82
2022-10-01T15:11:06.069Z,18.82
2022-10-01T15:13:38.023Z,18.60
2022-10-01T15:16:12.677Z,18.86
2022-10-01T15:18:57.601Z,18.52
2022-10-01T15:21:36.774Z,18.51
2022-10-01T15:24:12.330Z,18.30
2022-10-01T15:26:40.385Z,18.43
2022-10-01T15:29:16.714Z,18.83
2022-10-01T15:31:47.136Z,18.86
2022-10-01T15:34:17.643Z,18.73
2022-10-01T15:36:47.533Z,19.13
2022-10-01T15:39:32.646Z,19.13
2022-10-01T15:42:08.904Z,18.93
2022-10-01T15:44:38.386Z,18.86
2022-10-01T15:47:26.467Z,18.87
2022-10-01T15:50:12.603Z,18.99
2022-10-01T15:53:06.234Z,18.87
2022-10-01T15:55:35.029Z,18.47
2022-10-01T15:58:05.168Z,18.74
2022-10-01T16:00:44.211Z,18.84
2022-10-01T16:03:19.819Z,19.30
2022-10-01T16:05:48.908Z,18.97
2022-10-01T16:08:21.931Z,18.71
2022-10-01T16:11:15.730Z,18.82
2022-10-01T16:13:46.826Z,18.76
2022-10-01T16:16:14.451Z,18.80
2022-10-01T16:18:42.652Z,18.67
2022-10-01T16:21:11.422Z,18.79
2022-10-01T16:23:43.801Z,18.84
2022-10-01T16:26:29.931Z,18.48
2022-10-01T16:29:06.431Z,18.88
2022-10-01T16:31:36.946Z,18.90
2022-10-01T16:34:14.600Z,18.71
2022-10-01T16:36:44.061Z,18.27
2022-10-01T16:39:16.045Z,18.41
2022-10-01T16:41:56.552Z,18.51
2022-10-01T16:44:29.272Z,18.98
2022-10-01T16:46:57.158Z,18.32
2022-10-01T16:49:25.545Z,18.78
2022-10-01T16:51:53.979Z,18.53
2022-10-01T16:54:24.962Z,18.80
2022-10-01T16:56:55.288Z,18.86
2022-10-01T16:59:24.770Z,18.75
2022-10-01T17:01:54.996Z,18.50
2022-10-01T17:04:23.551Z,18.57
2022-10-01T17:06:51.143Z,18.33
2022-10-01T17:09:18.863Z,18.32
2022-10-01T17:11:46.778Z,18.27
2022-10-01T17:14:22.282Z,18.43
2022-10-01T17:16:53.235Z,18.28
2022-10-01T17:19:24.998Z,17.24
2022-10-01T17:21:53.268Z,18.10
2022-10-01T17:24:21.153Z,18.00
2022-10-01T17:26:48.829Z,18.11
2022-10-01T17:29:16.787Z,17.84
2022-10-01T17:31:53.282Z,17.79
2022-10-01T17:34:21.925Z,17.64
2022-10-01T17:36:49.605Z,17.57
2022-10-01T17:39:17.237Z,17.79
2022-10-01T17:41:45.223Z,17.83
2022-10-01T17:44:12.874Z,17.66
2022-10-01T17:46:40.516Z,17.61
2022-10-01T17:49:08.842Z,17.59
2022-10-01T17:51:36.824Z,17.89
2022-10-01T17:54:04.883Z,17.68
2022-10-01T17:56:33.276Z,17.80
2022-10-01T17:59:01.112Z,17.69
2022-10-01T18:01:28.792Z,17.88
2022-10-01T18:03:57.597Z,17.53
2022-10-01T18:06:25.754Z,17.61
2022-10-01T18:08:56.214Z,17.65
2022-10-01T18:11:27.021Z,17.41
2022-10-01T18:13:54.631Z,17.59
2022-10-01T18:16:22.366Z,17.36
2022-10-01T18:21:47.258Z,17.50
2022-10-01T18:24:16.285Z,17.54
2022-10-01T18:26:45.681Z,17.36
2022-10-01T18:29:21.927Z,17.54
2022-10-01T18:31:59.027Z,17.44
2022-10-01T18:34:32.923Z,17.14
2022-10-01T18:37:26.900Z,17.40
2022-10-01T18:40:07.941Z,17.24
2022-10-01T18:43:00.753Z,17.22
2022-10-01T18:45:59.871Z,17.28
2022-10-01T18:48:54.048Z,17.31
2022-10-01T18:51:24.602Z,17.61
2022-10-01T18:54:04.904Z,17.47
2022-10-01T18:56:37.555Z,17.23
2022-10-01T18:59:40.614Z,17.08
2022-10-01T19:02:35.039Z,17.07
2022-10-01T19:05:05.735Z,17.01
2022-10-01T19:07:33.293Z,17.36
2022-10-01T19:10:41.478Z,17.23
2022-10-01T19:13:26.056Z,17.31
2022-10-01T19:16:33.104Z,17.06
2022-10-01T19:19:26.068Z,17.13
2022-10-01T19:22:34.136Z,17.17
2022-10-01T19:25:25.669Z,17.24
2022-10-01T19:28:26.009Z,17.45
2022-10-01T19:31:12.681Z,17.26
2022-10-01T19:34:05.713Z,17.24
2022-10-01T19:36:40.813Z,17.06
2022-10-01T19:39:16.034Z,17.08
2022-10-01T19:42:05.728Z,17.68
2022-10-01T19:44:52.006Z,17.29
2022-10-01T19:47:46.040Z,17.41
2022-10-01T19:50:31.681Z,17.56
2022-10-01T19:53:02.523Z,17.51
2022-10-01T19:55:38.851Z,17.41
2022-10-01T19:58:18.006Z,17.27
2022-10-01T20:00:52.813Z,17.77
2022-10-01T20:03:34.809Z,18.08
2022-10-01T20:06:07.166Z,18.18
2022-10-01T20:08:55.555Z,18.00
2022-10-01T20:11:30.299Z,17.95
2022-10-01T20:14:36.083Z,18.13
2022-10-01T20:17:21.452Z,18.21
2022-10-01T20:20:17.282Z,17.80
2022-10-01T20:23:13.992Z,17.83
2022-10-01T20:25:47.761Z,17.83
2022-10-01T20:28:36.416Z,17.91
2022-10-01T20:31:16.460Z,18.00
2022-10-01T20:34:15.843Z,18.04
2022-10-01T20:37:08.142Z,17.97
2022-10-01T20:39:47.036Z,17.95
2022-10-01T20:42:24.205Z,17.87
2022-10-01T20:44:56.327Z,17.97
2022-10-01T20:47:46.741Z,17.88
2022-10-01T20:50:22.113Z,18.03
2022-10-01T20:53:04.124Z,17.90
2022-10-01T20:56:16.231Z,17.95
2022-10-01T20:58:59.136Z,18.14
2022-10-01T21:01:30.326Z,17.82
2022-10-01T21:04:05.206Z,17.60
2022-10-01T21:06:39.401Z,17.85
2022-10-01T21:09:18.628Z,17.86
2022-10-01T21:11:56.644Z,17.78
2022-10-01T21:14:24.931Z,17.56
2022-10-01T21:17:12.217Z,17.31
2022-10-01T21:19:54.907Z,17.23
2022-10-01T21:23:03.894Z,16.66
2022-10-01T21:25:37.830Z,17.38
2022-10-01T21:28:11.404Z,17.24
2022-10-01T21:30:53.076Z,17.18
2022-10-01T21:33:38.556Z,17.45
2022-10-01T21:36:27.919Z,16.93
2022-10-01T21:39:04.422Z,16.53
2022-10-01T21:42:04.376Z,16.42
2022-10-01T21:44:37.636Z,16.61
2022-10-01T21:47:40.972Z,16.45
2022-10-01T21:50:11.158Z,16.38
2022-10-01T21:53:08.138Z,16.86
2022-10-01T21:55:47.308Z,17.00
2022-10-01T21:58:55.480Z,17.12
2022-10-01T22:01:35.290Z,16.99
2022-10-01T22:04:32.154Z,16.85
2022-10-01T22:07:13.420Z,16.37
2022-10-01T22:09:51.862Z,16.76
2022-10-01T22:12:20.693Z,16.90
2022-10-01T22:14:51.652Z,16.42
2022-10-01T22:17:25.044Z,16.78
2022-10-01T22:19:56.943Z,17.01
2022-10-01T22:22:35.609Z,16.71
2022-10-01T22:25:05.116Z,16.31
2022-10-01T22:28:03.072Z,16.66
2022-10-01T22:30:36.958Z,16.76
2022-10-01T22:33:49.063Z,17.00
2022-10-01T22:36:31.705Z,16.68
2022-10-01T22:39:16.149Z,16.72
2022-10-01T22:41:56.385Z,17.00
2022-10-01T22:44:24.261Z,16.90
2022-10-01T22:47:00.726Z,16.90
2022-10-01T22:49:46.961Z,16.81
2022-10-01T22:52:17.426Z,16.92
2022-10-01T22:54:53.763Z,16.86
2022-10-01T22:57:43.693Z,16.84
2022-10-01T23:00:13.822Z,16.82
2022-10-01T23:02:49.993Z,16.64
2022-10-01T23:05:29.352Z,16.68
2022-10-01T23:08:07.381Z,16.36
2022-10-01T23:11:12.255Z,16.46
2022-10-01T23:13:58.689Z,16.66
2022-10-01T23:16:50.788Z,16.66
2022-10-01T23:19:38.959Z,16.67
2022-10-01T23:22:15.700Z,16.49
2022-10-01T23:24:59.394Z,16.50
2022-10-01T23:27:57.627Z,16.61
2022-10-01T23:30:32.100Z,16.63
2022-10-01T23:33:33.502Z,16.45
2022-10-01T23:36:28.893Z,16.57
2022-10-01T23:39:27.571Z,16.72
2022-10-01T23:42:02.697Z,16.81
2022-10-01T23:44:39.844Z,16.65
2022-10-01T23:47:16.943Z,16.43
2022-10-01T23:49:58.018Z,16.67
2022-10-01T23:52:47.556Z,16.33
2022-10-01T23:55:40.133Z,16.53
2022-10-01T23:58:13.927Z,16.52
